Time;durP1;ratioP1;P1;durP2;ratioP2;P2;SDS_P1;SDS_P2;PMS_P1;PMS_P2;Temp;Humidity;BMP_temperature;BMP_pressure;BME280_temperature;BME280_humidity;BME280_pressure;Samples;Min_cycle;Max_cycle;Signal;HPM_P1;HPM_P2
2022/12/03 00:02:14;;;;;;;50.10;27.23;;;8.30;99.90;;;8.23;69.76;95666.22;5075728;28;20554;-56
2022/12/03 00:04:41;;;;;;;53.53;26.80;;;8.30;99.90;;;8.23;69.51;95661.81;5078425;28;20856;-55
2022/12/03 00:07:08;;;;;;;52.10;25.47;;;8.30;99.90;;;8.23;69.46;95666.22;5083036;28;20942;-55
2022/12/03 00:09:37;;;;;;;47.80;26.13;;;8.30;99.90;;;8.23;70.05;95674.91;5083241;28;20477;-55
2022/12/03 00:12:04;;;;;;;53.40;27.03;;;8.30;99.90;;;8.23;69.68;95682.78;5084910;28;20568;-55
2022/12/03 00:14:32;;;;;;;49.63;26.00;;;8.30;99.90;;;8.24;69.93;95687.09;5081944;28;20477;-54
2022/12/03 00:16:59;;;;;;;49.43;26.10;;;8.30;99.90;;;8.25;69.81;95680.06;5082619;28;20493;-53
2022/12/03 00:19:26;;;;;;;55.30;27.47;;;8.40;99.90;;;8.22;69.89;95683.72;5084699;28;20474;-54
2022/12/03 00:21:53;;;;;;;54.70;29.07;;;8.30;99.90;;;8.24;69.90;95684.47;5082430;28;20515;-54
2022/12/03 00:24:21;;;;;;;50.00;24.83;;;8.30;99.90;;;8.24;70.31;95692.34;5080739;28;20471;-55
2022/12/03 00:26:49;;;;;;;59.90;27.93;;;8.30;99.90;;;8.24;70.04;95697.56;5078785;28;20542;-55
2022/12/03 00:29:16;;;;;;;48.37;25.50;;;8.30;99.90;;;8.25;70.15;95688.75;5081324;28;20486;-53
2022/12/03 00:31:44;;;;;;;46.00;25.37;;;8.30;99.90;;;8.25;70.08;95687.91;5082798;28;20867;-55
2022/12/03 00:34:11;;;;;;;55.27;23.90;;;8.40;99.90;;;8.25;69.95;95694.00;5080663;28;20963;-57
2022/12/03 00:36:38;;;;;;;49.47;24.90;;;8.40;99.90;;;8.27;70.39;95686.03;5079166;28;20562;-58
2022/12/03 00:39:06;;;;;;;52.13;25.13;;;8.40;99.90;;;8.26;70.11;95693.06;5080513;28;20478;-54
2022/12/03 00:41:33;;;;;;;59.90;23.00;;;8.40;99.90;;;8.25;70.08;95693.16;5081949;28;20464;-53
2022/12/03 00:44:01;;;;;;;37.33;22.17;;;8.30;99.90;;;8.22;70.24;95693.38;5079242;28;21006;-53
2022/12/03 00:46:29;;;;;;;35.23;19.70;;;8.30;99.90;;;8.20;70.14;95701.34;5082238;28;20462;-59
2022/12/03 00:48:56;;;;;;;43.43;20.53;;;8.30;99.90;;;8.19;69.95;95704.06;5079882;28;20850;-55
2022/12/03 00:51:23;;;;;;;38.13;19.37;;;8.30;99.90;;;8.19;70.34;95704.88;5084493;28;20476;-54
2022/12/03 00:53:50;;;;;;;37.30;19.13;;;8.30;99.90;;;8.20;70.08;95711.81;5079185;28;20469;-56
2022/12/03 00:56:18;;;;;;;43.53;21.70;;;8.30;99.90;;;8.20;70.21;95711.81;5083595;28;20493;-55
2022/12/03 00:58:45;;;;;;;39.80;21.27;;;8.30;99.90;;;8.20;70.42;95717.06;5076484;28;20455;-54
2022/12/03 01:01:13;;;;;;;37.93;21.00;;;8.30;99.90;;;8.22;70.30;95719.56;5078178;28;20512;-55
2022/12/03 01:03:41;;;;;;;60.47;32.23;;;8.30;99.90;;;8.23;70.51;95721.28;5080538;28;20450;-55
2022/12/03 01:06:08;;;;;;;53.20;26.23;;;8.30;99.90;;;8.22;70.45;95709.91;5083695;28;20458;-55
2022/12/03 01:08:36;;;;;;;57.93;25.43;;;8.30;99.90;;;8.23;70.16;95721.28;5080092;28;20470;-55
2022/12/03 01:11:36;;;;;;;46.50;24.93;;;8.30;99.90;;;8.23;70.42;95724.72;5075808;28;20455;-56
2022/12/03 01:13:50;;;;;;;61.80;24.80;;;8.30;99.90;;;8.23;70.73;95722.09;5086267;28;20875;-54
2022/12/03 01:16:19;;;;;;;48.80;23.23;;;8.30;99.90;;;8.24;70.11;95725.53;5077955;28;20490;-55
2022/12/03 01:18:46;;;;;;;47.43;23.40;;;8.30;99.90;;;8.24;70.00;95729.03;5080307;28;20507;-54
2022/12/03 01:21:13;;;;;;;46.53;23.00;;;8.30;99.90;;;8.25;70.77;95735.91;5081425;28;20499;-55
2022/12/03 01:23:41;;;;;;;30.50;19.60;;;8.30;99.90;;;8.25;70.64;95730.69;5080696;28;20886;-55
2022/12/03 01:26:08;;;;;;;33.70;17.73;;;8.40;99.90;;;8.28;70.16;95736.69;5083874;28;20975;-56
2022/12/03 01:28:35;;;;;;;43.63;21.30;;;8.30;99.90;;;8.28;70.37;95734.06;5081765;28;20493;-55
2022/12/03 01:33:48;;;;;;;30.53;17.50;;;8.40;99.90;;;8.30;70.33;95732.16;5079125;28;20931;-55
2022/12/03 01:36:15;;;;;;;21.13;14.03;;;8.40;99.90;;;8.29;70.07;95735.72;5081747;28;20862;-54
2022/12/03 01:38:43;;;;;;;19.87;14.33;;;8.40;99.90;;;8.26;69.91;95732.38;5082914;28;20450;-57
2022/12/03 01:41:10;;;;;;;23.70;14.60;;;8.40;99.90;;;8.23;70.05;95735.19;5081652;28;20458;-54
2022/12/03 01:43:37;;;;;;;28.00;14.00;;;8.30;99.90;;;8.20;69.96;95732.78;5080141;28;20973;-55
2022/12/03 01:46:04;;;;;;;26.00;13.90;;;8.30;99.90;;;8.18;69.94;95729.44;5082886;28;20895;-55
2022/12/03 01:48:33;;;;;;;21.40;14.20;;;8.30;99.90;;;8.17;69.72;95725.13;5080408;28;20478;-55
2022/12/03 01:51:02;;;;;;;27.67;14.20;;;8.30;99.90;;;8.16;70.18;95728.69;5083980;28;20459;-55
2022/12/03 01:53:29;;;;;;;20.50;13.90;;;8.30;99.90;;;8.14;69.77;95729.75;5079268;28;20458;-56
2022/12/03 01:55:56;;;;;;;25.00;14.57;;;8.30;99.90;;;8.14;70.22;95730.56;5081281;28;20551;-56
2022/12/03 01:58:26;;;;;;;24.10;14.70;;;8.20;99.90;;;8.14;70.24;95727.97;5084838;28;20450;-54
2022/12/03 02:00:53;;;;;;;23.43;15.10;;;8.20;99.90;;;8.15;70.10;95721.78;5080143;28;20801;-52
2022/12/03 02:03:23;;;;;;;24.27;14.83;;;8.20;99.90;;;8.17;70.37;95717.28;5077625;28;20512;-53
2022/12/03 02:05:50;;;;;;;28.43;17.37;;;8.30;99.90;;;8.19;70.52;95722.41;5079824;28;20686;-54
2022/12/03 02:08:32;;;;;;;33.03;16.30;;;8.30;99.90;;;8.22;70.70;95719.56;5077849;28;20458;-53
2022/12/03 02:11:01;;;;;;;30.17;16.60;;;8.30;99.90;;;8.23;70.47;95724.72;5081038;28;20470;-56
2022/12/03 02:13:29;;;;;;;38.03;16.80;;;8.30;99.90;;;8.26;69.96;95724.50;5082508;28;20461;-54
2022/12/03 02:15:56;;;;;;;29.40;17.40;;;8.30;99.90;;;8.26;70.13;95721.88;5079889;28;20495;-55
2022/12/03 02:18:23;;;;;;;35.33;18.47;;;8.30;99.90;;;8.25;70.06;95725.44;5078008;28;20454;-56
2022/12/03 02:20:56;;;;;;;36.40;19.37;;;8.40;99.90;;;8.25;69.73;95725.44;5079941;28;20558;-54
2022/12/03 02:23:28;;;;;;;32.07;16.60;;;8.40;99.90;;;8.25;69.92;95720.19;5078100;28;20450;-57
2022/12/03 02:25:57;;;;;;;38.30;19.70;;;8.40;99.90;;;8.25;70.33;95714.97;5077481;28;20470;-54
2022/12/03 02:28:24;;;;;;;44.20;18.80;;;8.30;99.90;;;8.24;70.59;95726.41;5078722;28;20453;-55
2022/12/03 02:30:52;;;;;;;36.23;20.43;;;8.30;99.90;;;8.23;70.25;95722.09;5077167;28;20882;-55
2022/12/03 02:33:19;;;;;;;21.73;14.60;;;8.30;99.90;;;8.22;69.62;95714.34;5081353;28;20798;-55
2022/12/03 02:35:46;;;;;;;29.03;16.30;;;8.30;99.90;;;8.18;69.85;95713.72;5077780;28;20482;-54
2022/12/03 02:38:29;;;;;;;26.70;15.80;;;8.30;99.90;;;8.16;70.34;95712.97;5047611;28;20458;-55
2022/12/03 02:41:00;;;;;;;30.97;15.83;;;8.30;99.90;;;8.19;70.56;95719.78;5076814;28;20477;-55
2022/12/03 02:43:26;;;;;;;31.87;17.93;;;8.30;99.90;;;8.18;70.21;95718.97;5077291;28;20461;-56
2022/12/03 02:45:55;;;;;;;30.27;17.20;;;8.30;99.90;;;8.18;70.28;95721.56;5076700;28;20486;-54
2022/12/03 02:48:25;;;;;;;25.50;16.60;;;8.20;99.90;;;8.18;70.60;95724.19;5073768;28;20454;-55
2022/12/03 02:50:54;;;;;;;23.90;16.27;;;8.30;99.90;;;8.19;70.17;95728.47;5078295;28;20519;-55
2022/12/03 02:53:23;;;;;;;24.23;15.53;;;8.30;99.90;;;8.21;70.58;95728.38;5080677;28;20457;-54
2022/12/03 02:55:50;;;;;;;22.40;13.50;;;8.30;99.90;;;8.21;70.74;95720.50;5078931;28;20490;-56
2022/12/03 02:58:19;;;;;;;33.67;16.60;;;8.30;99.90;;;8.21;70.55;95715.28;5076913;28;20454;-53
2022/12/03 03:00:48;;;;;;;41.80;21.57;;;8.30;99.90;;;8.21;70.48;95716.13;5073335;28;20489;-56
2022/12/03 03:03:15;;;;;;;41.87;23.60;;;8.30;99.90;;;8.22;70.22;95714.34;5078177;28;20451;-56
2022/12/03 03:05:42;;;;;;;42.13;22.83;;;8.30;99.90;;;8.21;70.34;95713.50;5075437;28;20476;-55
2022/12/03 03:08:10;;;;;;;42.43;25.10;;;8.30;99.90;;;8.20;70.39;95714.44;5075547;28;20451;-56
2022/12/03 03:10:37;;;;;;;54.20;25.67;;;8.30;99.90;;;8.21;70.78;95717.88;5080118;28;20474;-55
2022/12/03 03:13:08;;;;;;;48.47;26.40;;;8.30;99.90;;;8.19;70.31;95727.66;5077591;28;20461;-56
2022/12/03 03:15:37;;;;;;;47.67;23.47;;;8.30;99.90;;;8.16;70.79;95712.97;5080338;28;20495;-52
2022/12/03 03:18:05;;;;;;;43.27;24.80;;;8.30;99.90;;;8.16;70.80;95712.97;5073900;28;20885;-56
2022/12/03 03:20:32;;;;;;;44.63;25.07;;;8.20;99.90;;;8.16;70.89;95712.13;5081660;28;20485;-52
2022/12/03 03:23:05;;;;;;;46.23;24.17;;;8.20;99.90;;;8.15;70.35;95708.69;5072651;28;20541;-56
2022/12/03 03:25:33;;;;;;;50.43;25.50;;;8.20;99.90;;;8.15;70.89;95706.06;5081358;28;20470;-55
2022/12/03 03:28:00;;;;;;;42.93;24.77;;;8.20;99.90;;;8.15;70.89;95708.69;5077634;28;20451;-53
2022/12/03 03:30:28;;;;;;;45.27;24.03;;;8.20;99.90;;;8.16;70.70;95705.09;5080194;28;20572;-55
2022/12/03 03:32:56;;;;;;;44.20;24.43;;;8.30;99.90;;;8.18;70.59;95707.63;5074738;28;20454;-55
2022/12/03 03:35:24;;;;;;;43.20;22.33;;;8.30;99.90;;;8.19;70.56;95709.31;5072658;28;20888;-55
2022/12/03 03:37:52;;;;;;;37.60;22.47;;;8.30;99.90;;;8.19;70.54;95710.13;5078727;28;20497;-55
2022/12/03 03:40:19;;;;;;;48.90;22.33;;;8.30;99.90;;;8.21;70.57;95715.28;5079752;28;20529;-55
2022/12/03 03:42:47;;;;;;;49.80;22.33;;;8.30;99.90;;;8.19;70.86;95717.16;5080774;28;20666;-55
2022/12/03 03:45:14;;;;;;;39.00;20.83;;;8.30;99.90;;;8.18;70.73;95713.72;5079541;28;20465;-54
2022/12/03 03:47:41;;;;;;;37.50;19.93;;;8.30;99.90;;;8.18;70.62;95729.44;5078020;28;20449;-55
2022/12/03 03:50:11;;;;;;;45.47;20.60;;;8.30;99.90;;;8.18;70.82;95725.97;5078636;28;21013;-55
2022/12/03 03:52:39;;;;;;;41.33;21.37;;;8.30;99.90;;;8.15;70.71;95719.16;5078249;28;20458;-56
2022/12/03 03:55:07;;;;;;;34.10;19.40;;;8.30;99.90;;;8.14;70.54;95724.50;5077095;28;20567;-55
2022/12/03 03:57:34;;;;;;;41.17;20.50;;;8.20;99.90;;;8.13;70.65;95728.88;5076887;28;20501;-54
2022/12/03 04:00:03;;;;;;;25.70;15.33;;;8.20;99.90;;;8.13;70.94;95726.28;5082018;28;21017;-55
2022/12/03 04:02:30;;;;;;;36.33;18.23;;;8.20;99.90;;;8.11;70.89;95720.31;5081162;28;20461;-53
2022/12/03 04:04:58;;;;;;;30.87;17.40;;;8.20;99.90;;;8.11;70.18;95722.09;5073104;28;20477;-55
2022/12/03 04:07:27;;;;;;;32.07;16.47;;;8.20;99.90;;;8.08;70.67;95723.97;5080830;28;20446;-55
2022/12/03 04:09:54;;;;;;;22.20;14.87;;;8.20;99.90;;;8.06;70.52;95725.03;5077300;28;20466;-54
2022/12/03 04:15:08;;;;;;;23.40;14.37;;;8.10;99.90;;;8.02;70.35;95740.09;5078964;28;20522;-55
2022/12/03 04:17:36;;;;;;;19.13;12.67;;;8.10;99.90;;;8.04;70.82;95753.09;5079504;28;20497;-54
2022/12/03 04:20:04;;;;;;;22.10;13.93;;;8.10;99.90;;;8.04;70.85;95748.72;5084639;28;20477;-54
2022/12/03 04:22:41;;;;;;;19.43;13.07;;;8.10;99.90;;;8.06;70.49;95738.94;5081316;28;20450;-56
2022/12/03 04:30:39;;;;;;;17.87;11.77;;;8.20;99.90;;;8.05;70.27;95754.78;5076251;28;20504;-56
2022/12/03 04:35:54;;;;;;;19.97;12.53;;;8.10;99.90;;;7.93;69.93;95752.97;5070077;28;20474;-54
2022/12/03 04:38:22;;;;;;;17.67;11.97;;;8.00;99.90;;;7.85;70.28;95759.56;5083719;28;20912;-53
2022/12/03 04:41:02;;;;;;;19.10;12.87;;;8.00;99.90;;;7.79;70.67;95765.22;5080000;28;20507;-55
2022/12/03 04:43:31;;;;;;;19.97;11.90;;;7.90;99.90;;;7.74;70.07;95755.97;5079707;28;20840;-53
2022/12/03 04:45:59;;;;;;;20.10;13.03;;;7.90;99.90;;;7.72;70.79;95759.53;5076994;28;20919;-55
2022/12/03 04:48:26;;;;;;;18.03;11.80;;;7.80;99.90;;;7.74;71.25;95750.72;5082431;28;20453;-55
2022/12/03 04:50:53;;;;;;;20.37;12.80;;;7.80;99.90;;;7.76;71.00;95759.31;5081440;28;20477;-56
2022/12/03 04:53:22;;;;;;;14.57;10.17;;;7.80;99.90;;;7.78;70.32;95744.38;5083298;28;20958;-54
2022/12/03 04:55:49;;;;;;;17.00;11.37;;;7.90;99.90;;;7.77;70.46;95751.38;5081851;28;20470;-54
2022/12/03 04:58:16;;;;;;;14.80;11.30;;;7.90;99.90;;;7.75;70.80;95758.50;5075441;28;20502;-54
2022/12/03 05:00:44;;;;;;;15.87;10.67;;;7.90;99.90;;;7.74;70.43;95756.81;5075806;28;20466;-54
2022/12/03 05:03:11;;;;;;;17.60;11.23;;;7.90;99.90;;;7.71;70.61;95749.16;5078323;28;20454;-56
2022/12/03 05:05:38;;;;;;;17.17;10.50;;;7.90;99.90;;;7.71;70.50;95757.00;5081463;28;21874;-55
2022/12/03 05:08:07;;;;;;;16.67;11.57;;;7.80;99.90;;;7.70;70.87;95758.78;5082004;28;20457;-54
2022/12/03 05:10:35;;;;;;;15.83;11.27;;;7.80;99.90;;;7.71;71.32;95759.63;5081700;28;20526;-55
2022/12/03 05:13:02;;;;;;;11.53;9.93;;;7.80;99.90;;;7.71;70.95;95757.88;5078899;28;20447;-55
2022/12/03 05:15:30;;;;;;;14.37;9.13;;;7.80;99.90;;;7.70;70.95;95760.59;5082118;28;20477;-55
2022/12/03 05:17:57;;;;;;;12.50;9.63;;;7.80;99.90;;;7.68;71.32;95754.59;5079135;28;20697;-56
2022/12/03 05:20:43;;;;;;;10.33;8.40;;;7.80;99.90;;;7.67;70.61;95755.53;5083421;28;20477;-56
2022/12/03 05:23:10;;;;;;;13.70;9.03;;;7.80;99.90;;;7.63;70.88;95762.75;5079319;28;20438;-54
2022/12/03 05:25:39;;;;;;;13.90;9.07;;;7.80;99.90;;;7.62;71.09;95766.31;5079868;28;20481;-54
2022/12/03 05:28:06;;;;;;;12.73;9.17;;;7.80;99.90;;;7.61;70.93;95767.25;5080390;28;20446;-54
2022/12/03 05:30:34;;;;;;;11.93;8.40;;;7.80;99.90;;;7.60;71.06;95772.56;5081804;28;20543;-54
2022/12/03 05:33:01;;;;;;;12.63;9.03;;;7.70;99.90;;;7.59;71.34;95773.50;5078774;28;20611;-53
2022/12/03 05:35:28;;;;;;;16.30;9.93;;;7.70;99.90;;;7.56;71.62;95771.94;5082034;28;21000;-54
2022/12/03 05:37:56;;;;;;;11.10;8.70;;;7.70;99.90;;;7.57;70.74;95767.53;5079769;28;20485;-54
2022/12/03 05:40:23;;;;;;;11.20;9.03;;;7.70;99.90;;;7.56;71.53;95771.94;5081645;28;20831;-55
2022/12/03 05:42:53;;;;;;;12.80;9.20;;;7.70;99.90;;;7.54;71.44;95772.03;5080380;28;20458;-54
2022/12/03 05:45:21;;;;;;;12.73;8.80;;;7.70;99.90;;;7.55;70.66;95778.09;5081376;28;20474;-57
2022/12/03 05:47:48;;;;;;;12.00;9.17;;;7.70;99.90;;;7.56;70.76;95781.56;5080883;28;21045;-53
2022/12/03 05:50:16;;;;;;;11.00;8.67;;;7.70;99.90;;;7.54;71.60;95777.28;5080246;28;20523;-55
2022/12/03 05:52:43;;;;;;;11.00;9.37;;;7.70;99.90;;;7.57;71.33;95784.06;5080956;28;20458;-55
2022/12/03 05:55:10;;;;;;;11.30;9.13;;;7.70;99.90;;;7.59;71.60;95786.59;5078647;28;20477;-55
2022/12/03 05:57:38;;;;;;;15.20;9.17;;;7.70;99.90;;;7.62;71.52;95794.25;5077265;28;20573;-55
2022/12/03 06:00:11;;;;;;;22.90;14.07;;;7.70;99.90;;;7.63;70.74;95796.78;5078068;28;20466;-56
2022/12/03 06:02:39;;;;;;;13.47;10.60;;;7.70;99.90;;;7.61;71.01;95797.84;5081448;28;20454;-52
2022/12/03 06:05:07;;;;;;;26.90;10.30;;;7.70;99.90;;;7.58;71.01;95803.25;5077634;28;20470;-56
2022/12/03 06:07:34;;;;;;;18.10;12.40;;;7.70;99.90;;;7.52;70.73;95797.47;5081637;28;20488;-54
2022/12/03 06:10:02;;;;;;;37.13;21.23;;;7.70;99.90;;;7.47;71.20;95796.09;5071993;28;20474;-55
2022/12/03 06:12:29;;;;;;;20.03;13.50;;;7.60;99.90;;;7.42;71.01;95804.25;5077687;28;20479;-54
2022/12/03 06:14:56;;;;;;;13.00;9.90;;;7.60;99.90;;;7.40;70.76;95807.88;5079984;28;20461;-54
2022/12/03 06:17:25;;;;;;;14.07;9.30;;;7.50;99.90;;;7.38;71.22;95809.75;5080101;28;21048;-54
2022/12/03 06:19:52;;;;;;;11.00;8.63;;;7.50;99.90;;;7.36;71.13;95810.69;5080758;28;20862;-62
2022/12/03 06:22:19;;;;;;;12.07;8.77;;;7.50;99.90;;;7.33;71.59;95810.06;5079685;28;20985;-54
2022/12/03 06:24:47;;;;;;;11.20;8.33;;;7.50;99.90;;;7.31;71.15;95817.13;5079861;28;20466;-55
2022/12/03 06:27:14;;;;;;;10.83;7.50;;;7.40;99.90;;;7.27;71.79;95813.88;5079877;28;20966;-55
2022/12/03 06:29:41;;;;;;;16.33;8.43;;;7.40;99.90;;;7.24;71.33;95816.69;5080964;28;20478;-53
2022/12/03 06:32:09;;;;;;;9.00;7.60;;;7.40;99.90;;;7.24;72.05;95819.31;5080451;28;20518;-55
2022/12/03 06:34:38;;;;;;;14.67;7.33;;;7.40;99.90;;;7.21;71.61;95819.50;5079973;28;20490;-55
2022/12/03 06:37:06;;;;;;;9.50;7.60;;;7.40;99.90;;;7.22;71.67;95817.72;5079860;28;20500;-56
2022/12/03 06:39:33;;;;;;;13.53;8.47;;;7.40;99.90;;;7.24;71.66;95818.47;5081105;28;20470;-56
2022/12/03 06:42:00;;;;;;;11.30;8.40;;;7.40;99.90;;;7.28;71.95;95812.09;5078235;28;20507;-57
2022/12/03 06:44:28;;;;;;;8.20;7.07;;;7.40;99.90;;;7.33;71.63;95815.28;5076541;28;20477;-55
2022/12/03 06:46:55;;;;;;;9.87;7.60;;;7.40;99.90;;;7.34;72.14;95815.19;5080294;28;20450;-56
2022/12/03 06:49:22;;;;;;;9.20;6.67;;;7.50;99.90;;;7.42;71.83;95813.84;5079769;28;20510;-56
2022/12/03 06:51:51;;;;;;;8.20;7.40;;;7.50;99.90;;;7.47;71.94;95819.66;5081030;28;20465;-54
2022/12/03 06:54:18;;;;;;;9.20;8.00;;;7.50;99.90;;;7.51;71.98;95814.13;5080151;28;20581;-55
2022/12/03 06:56:46;;;;;;;18.27;7.97;;;7.60;99.90;;;7.54;72.18;95816.56;5080773;28;20590;-56
2022/12/03 06:59:13;;;;;;;10.37;7.87;;;7.60;99.90;;;7.60;71.44;95820.53;5072964;28;20467;-55
2022/12/03 07:01:40;;;;;;;10.27;7.20;;;7.70;99.90;;;7.65;72.11;95815.00;5080206;28;21027;-55
2022/12/03 07:04:08;;;;;;;11.87;8.90;;;7.70;99.90;;;7.70;71.52;95826.88;5078759;28;20519;-55
2022/12/03 07:06:36;;;;;;;22.50;14.40;;;7.80;99.90;;;7.74;71.31;95829.28;5076656;28;20469;-55
2022/12/03 07:09:05;;;;;;;15.63;7.80;;;7.80;99.90;;;7.75;70.84;95825.75;5080367;28;20462;-55
2022/12/03 07:11:32;;;;;;;10.50;7.70;;;7.90;99.90;;;7.76;71.91;95832.66;5079594;28;20478;-52
2022/12/03 07:14:00;;;;;;;7.63;6.83;;;7.90;99.90;;;7.75;71.56;95837.06;5080813;28;20966;-53
2022/12/03 07:16:27;;;;;;;9.73;8.00;;;7.90;99.90;;;7.74;71.00;95837.97;5080585;28;21066;-55
2022/12/03 07:18:54;;;;;;;11.60;8.97;;;7.90;99.90;;;7.73;71.22;95833.69;5079084;28;20500;-54
2022/12/03 07:21:21;;;;;;;10.57;7.03;;;7.90;99.90;;;7.76;71.38;95835.25;5080461;28;20527;-55
2022/12/03 07:23:49;;;;;;;8.43;7.33;;;7.90;99.90;;;7.77;71.56;95839.56;5076807;28;20430;-54
2022/12/03 07:26:18;;;;;;;9.50;6.50;;;7.90;99.90;;;7.78;71.66;95841.25;5080320;28;20500;-54
2022/12/03 07:28:45;;;;;;;35.33;14.13;;;7.90;99.90;;;7.79;71.62;95835.06;5080557;28;20462;-56
2022/12/03 07:31:12;;;;;;;9.03;7.40;;;7.90;99.90;;;7.78;71.40;95846.50;5083351;28;20554;-54
2022/12/03 07:33:40;;;;;;;7.13;6.27;;;7.90;99.90;;;7.78;71.45;95847.34;5079322;28;20457;-55
2022/12/03 07:36:08;;;;;;;7.97;6.40;;;7.90;99.90;;;7.82;71.95;95845.34;5082699;28;20954;-56
2022/12/03 07:38:36;;;;;;;6.03;5.40;;;7.90;99.90;;;7.85;71.44;95845.16;5077590;28;20489;-54
2022/12/03 07:41:03;;;;;;;12.60;6.23;;;7.90;99.90;;;7.83;71.06;95854.88;5074573;28;20845;-55
2022/12/03 07:43:32;;;;;;;5.90;5.40;;;7.90;99.90;;;7.85;70.88;95855.63;5080333;28;21033;-55
2022/12/03 07:45:59;;;;;;;10.40;7.40;;;8.00;99.90;;;7.82;70.93;95858.44;5081001;28;20454;-56
2022/12/03 07:48:26;;;;;;;8.30;7.20;;;7.90;99.90;;;7.80;71.13;95853.28;5080789;28;20813;-55
2022/12/03 07:50:54;;;;;;;6.10;5.53;;;7.90;99.90;;;7.79;71.66;95851.63;5080602;28;21313;-54
2022/12/03 07:53:22;;;;;;;7.17;6.47;;;7.90;99.90;;;7.80;71.19;95855.09;5083421;28;20508;-55
2022/12/03 07:55:49;;;;;;;8.27;6.80;;;7.90;99.90;;;7.79;71.00;95854.25;5084861;28;20830;-57
2022/12/03 07:58:17;;;;;;;7.33;6.63;;;7.90;99.90;;;7.79;70.83;95856.88;5081497;28;20482;-54
2022/12/03 08:00:45;;;;;;;7.20;6.27;;;7.90;99.90;;;7.77;71.18;95856.13;5078920;28;20493;-55
2022/12/03 08:03:12;;;;;;;9.30;7.30;;;7.90;99.90;;;7.78;71.04;95846.50;5080208;28;20481;-55
2022/12/03 08:05:40;;;;;;;11.97;7.27;;;7.90;99.90;;;7.80;71.06;95848.06;5084570;28;21301;-57
2022/12/03 08:08:07;;;;;;;8.17;6.37;;;7.90;99.90;;;7.81;70.68;95855.00;5080824;28;20446;-57
2022/12/03 08:10:34;;;;;;;67.13;28.20;;;7.90;99.90;;;7.82;71.24;95854.06;5074486;28;20486;-55
2022/12/03 08:13:02;;;;;;;10.73;8.10;;;7.90;99.90;;;7.86;70.82;95854.69;5080078;28;20469;-56
2022/12/03 08:15:29;;;;;;;9.00;6.93;;;8.00;99.90;;;7.86;71.33;95859.94;5082356;28;20901;-57
2022/12/03 08:17:59;;;;;;;7.20;6.40;;;8.00;99.90;;;7.88;71.40;95861.53;5083922;28;20856;-56
2022/12/03 08:20:28;;;;;;;10.23;6.47;;;8.00;99.90;;;7.89;70.53;95863.19;5078229;28;20470;-55
2022/12/03 08:22:55;;;;;;;8.90;6.53;;;8.00;99.90;;;7.90;70.68;95870.13;5082156;28;20870;-56
2022/12/03 08:25:27;;;;;;;9.37;7.40;;;8.00;99.90;;;7.93;70.72;95868.22;5080606;28;20481;-56
2022/12/03 08:27:56;;;;;;;17.67;6.33;;;8.00;99.90;;;7.96;71.48;95873.25;5083566;28;20442;-56
2022/12/03 08:30:24;;;;;;;8.40;7.10;;;8.00;99.90;;;7.98;70.84;95874.00;5084348;28;20485;-57
2022/12/03 08:32:51;;;;;;;8.43;6.90;;;8.10;99.90;;;7.99;71.18;95880.94;5082100;28;20454;-55
2022/12/03 08:35:23;;;;;;;9.23;7.83;;;8.10;99.90;;;8.03;71.07;95885.03;5084982;28;20473;-56
2022/12/03 08:37:56;;;;;;;23.97;15.13;;;8.10;99.90;;;8.07;71.05;95881.25;5079359;28;20478;-54
2022/12/03 08:40:27;;;;;;;20.13;12.10;;;8.20;99.90;;;8.11;70.52;95877.50;5083548;28;20477;-57
2022/12/03 08:42:54;;;;;;;11.23;7.60;;;8.20;99.90;;;8.15;70.34;95873.75;5082769;28;20445;-54
2022/12/03 08:45:43;;;;;;;8.13;6.27;;;8.20;99.90;;;8.18;70.64;95875.31;5081605;28;20473;-56
2022/12/03 08:48:28;;;;;;;15.03;7.33;;;8.30;99.90;;;8.20;70.71;95871.69;5084803;28;20450;-55
2022/12/03 08:50:58;;;;;;;9.30;7.73;;;8.30;99.90;;;8.24;70.61;95874.94;5083506;28;20482;-54
2022/12/03 08:53:30;;;;;;;8.20;6.30;;;8.30;99.90;;;8.24;70.61;95873.16;5082773;28;20844;-56
2022/12/03 08:55:58;;;;;;;10.00;6.60;;;8.40;99.90;;;8.30;69.89;95873.69;5083722;28;20551;-57
2022/12/03 08:58:33;;;;;;;7.93;7.13;;;8.40;99.90;;;8.31;69.70;95870.13;5079600;28;20551;-55
2022/12/03 09:01:06;;;;;;;10.27;8.27;;;8.40;99.90;;;8.31;70.37;95870.13;5080384;28;20543;-56
2022/12/03 09:03:33;;;;;;;10.60;7.33;;;8.40;99.90;;;8.34;69.92;95869.94;5082082;28;20890;-56
2022/12/03 09:06:02;;;;;;;9.73;7.73;;;8.40;99.90;;;8.38;69.73;95874.88;5080406;28;20481;-58
2022/12/03 09:08:29;;;;;;;12.80;7.23;;;8.50;99.90;;;8.40;69.73;95869.53;5079889;28;20446;-57
2022/12/03 09:10:56;;;;;;;12.00;8.57;;;8.50;99.90;;;8.42;69.56;95871.09;5075169;28;20500;-54
2022/12/03 09:13:23;;;;;;;13.20;8.80;;;8.50;99.90;;;8.45;69.59;95867.47;5081702;28;20472;-55
2022/12/03 09:15:51;;;;;;;9.30;7.77;;;8.50;99.90;;;8.46;69.46;95873.53;5077843;28;20474;-56
2022/12/03 09:18:18;;;;;;;10.70;8.10;;;8.50;99.90;;;8.44;69.42;95871.03;5082653;28;20493;-57
2022/12/03 09:20:45;;;;;;;9.20;7.47;;;8.50;99.90;;;8.43;69.29;95859.72;5079918;28;20462;-55
2022/12/03 09:23:14;;;;;;;10.30;7.70;;;8.50;99.90;;;8.46;69.22;95857.81;5082754;28;20457;-57
2022/12/03 09:25:41;;;;;;;14.57;9.00;;;8.50;99.90;;;8.46;69.25;95857.81;5082627;28;20470;-54
2022/12/03 09:28:09;;;;;;;19.20;9.23;;;8.50;99.90;;;8.46;69.01;95861.28;5081756;28;20457;-55
2022/12/03 09:30:36;;;;;;;14.17;9.03;;;8.50;99.90;;;8.47;68.84;95862.94;5084096;28;20480;-56
2022/12/03 09:33:03;;;;;;;13.50;8.67;;;8.60;99.90;;;8.48;68.89;95867.25;5079503;28;20579;-53
2022/12/03 09:35:31;;;;;;;11.87;8.97;;;8.60;99.90;;;8.50;68.89;95864.53;5084083;28;20469;-56
2022/12/03 09:37:59;;;;;;;11.23;8.13;;;8.60;99.90;;;8.52;69.27;95863.50;5079124;28;20973;-57
2022/12/03 09:40:28;;;;;;;10.87;9.00;;;8.60;99.90;;;8.50;69.08;95860.13;5081791;28;20576;-56
2022/12/03 09:42:57;;;;;;;13.30;9.00;;;8.60;99.90;;;8.54;69.35;95853.75;5079416;28;20915;-56
2022/12/03 09:45:24;;;;;;;19.70;9.33;;;8.70;99.90;;;8.55;69.16;95863.31;5081675;28;20496;-55
2022/12/03 09:47:51;;;;;;;12.40;9.60;;;8.60;99.90;;;8.56;69.03;95858.88;5081776;28;20892;-54
2022/12/03 09:50:20;;;;;;;15.73;9.87;;;8.70;99.90;;;8.56;68.94;95853.66;5083654;28;20481;-57
2022/12/03 09:52:48;;;;;;;16.77;9.50;;;8.70;99.90;;;8.55;68.81;95850.19;5084376;28;20446;-52
2022/12/03 09:55:18;;;;;;;51.90;29.87;;;8.60;99.90;;;8.57;68.74;95845.66;5083734;28;20470;-57
2022/12/03 09:57:46;;;;;;;16.30;10.53;;;8.70;99.90;;;8.60;69.25;95847.25;5079331;28;20487;-56
2022/12/03 10:00:17;;;;;;;13.53;9.87;;;8.70;99.90;;;8.63;68.83;95835.69;5076663;28;20530;-56
2022/12/03 10:02:45;;;;;;;18.97;11.60;;;8.70;99.90;;;8.65;68.52;95837.28;5075846;28;20447;-56
2022/12/03 10:05:12;;;;;;;15.07;10.43;;;8.70;99.90;;;8.71;69.06;95838.66;5074724;28;20466;-56
2022/12/03 10:07:39;;;;;;;18.90;11.20;;;8.80;99.90;;;8.74;68.66;95834.03;5072446;28;20451;-56
2022/12/03 10:10:13;;;;;;;16.43;10.30;;;8.80;99.90;;;8.75;68.79;95835.72;5076434;28;20466;-54
2022/12/03 10:12:40;;;;;;;15.07;10.03;;;8.80;99.90;;;8.77;69.03;95836.44;5074435;28;20477;-57
2022/12/03 10:15:12;;;;;;;15.17;10.03;;;8.90;99.90;;;8.82;69.26;95830.91;5076664;28;20467;-56
2022/12/03 10:17:40;;;;;;;16.33;11.33;;;8.90;99.90;;;8.84;68.50;95826.38;5077320;28;20521;-55
2022/12/03 10:20:11;;;;;;;21.83;11.73;;;8.90;99.90;;;8.87;68.58;95828.78;5077914;28;20467;-56
2022/12/03 10:22:38;;;;;;;15.70;10.03;;;8.90;99.90;;;8.90;68.40;95825.94;5078431;28;20439;-56
2022/12/03 10:25:08;;;;;;;12.87;10.13;;;9.00;99.90;;;8.92;68.68;95821.47;5082344;28;20968;-56
2022/12/03 10:27:36;;;;;;;15.07;11.03;;;9.00;99.90;;;8.95;68.29;95817.75;5079477;28;20445;-56
2022/12/03 10:30:06;;;;;;;16.43;10.87;;;9.00;99.90;;;8.96;68.08;95812.41;5078392;28;20478;-54
2022/12/03 10:32:41;;;;;;;21.27;11.10;;;9.00;99.90;;;8.96;68.08;95822.91;5077049;28;20463;-55
2022/12/03 10:35:11;;;;;;;13.70;10.33;;;9.00;99.90;;;8.95;68.10;95817.75;5080815;28;20507;-55
2022/12/03 10:37:46;;;;;;;11.67;10.27;;;9.00;99.90;;;8.92;67.98;95820.59;5077440;28;20446;-55
2022/12/03 10:40:14;;;;;;;12.57;10.20;;;9.00;99.90;;;8.90;68.19;95804.97;5082329;28;21356;-56
2022/12/03 10:42:41;;;;;;;19.77;12.13;;;9.00;99.90;;;8.89;68.28;95811.19;5077344;28;20999;-54